Time;durP1;ratioP1;P1;durP2;ratioP2;P2;SDS_P1;SDS_P2;PMS_P1;PMS_P2;Temp;Humidity;BMP_temperature;BMP_pressure;BME280_temperature;BME280_humidity;BME280_pressure;Samples;Min_cycle;Max_cycle;Signal;HPM_P1;HPM_P2
2022/05/16 00:00:26;;;;;;;6.10;4.03;;;;;;;18.45;73.23;99996.16;5105126;28;20465;-83
2022/05/16 00:02:54;;;;;;;7.20;4.35;;;;;;;18.18;73.64;99992.84;5106226;28;20051;-85
2022/05/16 00:05:20;;;;;;;4.68;2.75;;;;;;;18.24;73.55;100001.47;5106750;28;20089;-83
2022/05/16 00:07:45;;;;;;;5.40;3.42;;;;;;;17.95;74.66;99986.66;5106087;28;20024;-84
2022/05/16 00:10:14;;;;;;;4.90;3.70;;;;;;;17.75;75.37;99975.88;5107005;28;20066;-83
2022/05/16 00:12:40;;;;;;;5.35;4.18;;;;;;;17.88;74.83;99988.69;5106983;28;20031;-83
2022/05/16 00:15:13;;;;;;;7.30;4.50;;;;;;;17.89;74.49;99965.56;5106011;28;20063;-83
2022/05/16 00:17:39;;;;;;;9.50;5.57;;;;;;;18.10;74.18;99998.50;5106453;28;20027;-84
2022/05/16 00:20:05;;;;;;;5.13;4.20;;;;;;;18.02;73.92;99979.28;5105880;28;20032;-83
2022/05/16 00:22:32;;;;;;;5.53;3.78;;;;;;;18.12;73.23;99987.75;5106645;28;20089;-83
2022/05/16 00:24:57;;;;;;;5.55;4.05;;;;;;;17.98;73.50;99969.63;5105732;28;20042;-83
2022/05/16 00:27:23;;;;;;;4.93;4.32;;;;;;;18.18;73.36;100006.19;5105628;28;20043;-84
2022/05/16 00:29:48;;;;;;;5.97;3.58;;;;;;;18.00;73.56;99986.47;5107078;28;20035;-83
2022/05/16 00:32:14;;;;;;;7.72;3.80;;;;;;;18.21;73.27;100008.72;5106031;28;20439;-84
2022/05/16 00:34:40;;;;;;;7.63;4.30;;;;;;;18.15;73.09;100006.31;5106344;28;20036;-84
2022/05/16 00:37:05;;;;;;;6.45;3.83;;;;;;;18.21;73.11;100024.75;5106400;28;20023;-82
2022/05/16 00:39:31;;;;;;;10.07;5.05;;;;;;;18.03;73.05;99981.03;5106641;28;20040;-83
2022/05/16 00:41:57;;;;;;;6.63;5.28;;;;;;;18.03;73.12;99976.53;5106028;28;20081;-83
2022/05/16 00:44:24;;;;;;;6.63;4.60;;;;;;;18.16;73.44;100014.25;5106176;28;20070;-84
2022/05/16 00:46:50;;;;;;;5.10;3.50;;;;;;;17.81;73.80;99965.84;5105687;28;20043;-83
2022/05/16 00:49:21;;;;;;;6.53;4.10;;;;;;;18.17;73.61;100018.69;5108693;28;20042;-83
2022/05/16 00:51:52;;;;;;;5.65;3.92;;;;;;;18.09;73.10;100012.78;5109277;28;20417;-83
2022/05/16 00:54:24;;;;;;;9.93;5.95;;;;;;;17.87;72.79;99970.06;5109028;28;20036;-83
2022/05/16 00:56:57;;;;;;;8.57;5.60;;;;;;;18.09;73.40;100018.13;5109735;28;20101;-83
2022/05/16 00:59:33;;;;;;;7.57;4.07;;;;;;;18.05;73.19;100022.72;5110307;27;20130;-83
2022/05/16 01:04:48;;;;;;;6.25;3.42;;;;;;;18.05;72.61;99997.81;5109618;28;20177;-82
2022/05/16 01:07:23;;;;;;;8.25;5.90;;;;;;;18.11;72.80;100015.41;5108184;28;20038;-83
2022/05/16 01:09:49;;;;;;;5.82;5.25;;;;;;;18.03;73.26;100018.38;5090027;28;20028;-83
2022/05/16 01:12:15;;;;;;;5.90;4.25;;;;;;;17.80;73.38;99995.25;5108917;28;20063;-84
2022/05/16 01:14:49;;;;;;;6.88;4.45;;;;;;;17.72;73.38;99967.09;5108871;28;20500;-84
2022/05/16 01:17:14;;;;;;;5.55;4.95;;;;;;;17.93;73.51;100011.66;5109482;28;20031;-83
2022/05/16 01:19:40;;;;;;;6.03;4.30;;;;;;;18.01;73.38;100013.09;5109393;28;20043;-83
2022/05/16 01:22:26;;;;;;;6.68;5.40;;;;;;;17.98;74.07;100018.56;5109482;27;20057;-83
2022/05/16 01:24:53;;;;;;;5.97;4.30;;;;;;;17.98;74.08;100012.34;5107520;28;20052;-83
2022/05/16 01:27:20;;;;;;;7.97;5.38;;;;;;;17.99;74.03;100020.28;5109113;28;20117;-83
2022/05/16 01:29:45;;;;;;;6.05;3.55;;;;;;;17.88;74.57;100006.47;5110435;28;20036;-84
2022/05/16 01:32:11;;;;;;;8.07;5.78;;;;;;;17.49;74.96;99969.81;5109894;28;20099;-83
2022/05/16 01:34:38;;;;;;;8.82;5.70;;;;;;;17.63;74.82;99987.94;5108664;28;20039;-83
2022/05/16 01:37:04;;;;;;;5.65;4.93;;;;;;;17.68;74.95;100012.63;5108686;28;20066;-84
2022/05/16 01:39:29;;;;;;;7.63;4.70;;;;;;;17.50;75.25;100014.19;5106928;28;20100;-84
2022/05/16 01:41:55;;;;;;;8.20;5.30;;;;;;;17.47;75.83;100024.97;5108269;28;20150;-84
2022/05/16 01:44:20;;;;;;;8.88;6.57;;;;;;;17.48;75.53;100005.38;5109309;28;20044;-84
2022/05/16 01:46:46;;;;;;;9.02;4.65;;;;;;;17.54;75.37;100014.00;5108189;28;20062;-84
2022/05/16 01:49:11;;;;;;;7.65;4.70;;;;;;;17.70;74.93;100018.75;5109296;28;20425;-84
2022/05/16 01:51:38;;;;;;;7.10;4.68;;;;;;;17.58;74.52;99997.88;5109534;28;20055;-84
2022/05/16 01:54:05;;;;;;;8.10;4.95;;;;;;;17.71;74.40;100016.03;5109319;28;20034;-84
2022/05/16 01:56:35;;;;;;;6.05;3.40;;;;;;;17.68;74.05;100015.28;5108841;28;20030;-84
2022/05/16 01:59:03;;;;;;;8.55;5.43;;;;;;;17.87;73.31;100028.75;5109236;28;20031;-83
2022/05/16 02:01:29;;;;;;;5.97;3.88;;;;;;;17.58;73.25;99990.78;5108896;28;20039;-85
2022/05/16 02:03:55;;;;;;;7.20;4.03;;;;;;;17.57;74.14;100010.38;5109237;28;20028;-84
2022/05/16 02:06:20;;;;;;;8.35;5.38;;;;;;;17.70;73.96;100024.97;5108372;28;20570;-83
2022/05/16 02:08:49;;;;;;;7.22;4.22;;;;;;;17.48;73.88;99998.25;5108415;28;20413;-84
2022/05/16 02:11:16;;;;;;;9.27;5.15;;;;;;;17.64;73.58;100009.22;5109267;28;20035;-84
2022/05/16 02:13:43;;;;;;;6.82;4.72;;;;;;;17.50;73.44;99990.19;5108945;28;20032;-84
2022/05/16 02:16:09;;;;;;;6.05;4.35;;;;;;;17.62;73.67;100018.19;5108336;28;20055;-84
2022/05/16 02:18:36;;;;;;;7.95;3.97;;;;;;;17.47;73.77;100006.31;5108942;28;20112;-83
2022/05/16 02:26:31;;;;;;;4.95;3.85;;;;;;;17.50;73.33;100000.84;5106975;28;20127;-84
2022/05/16 02:28:56;;;;;;;5.65;4.22;;;;;;;17.40;73.26;99988.81;5108940;28;20351;-83
2022/05/16 02:31:21;;;;;;;7.13;3.58;;;;;;;17.53;72.78;100019.41;5108495;28;20081;-83
2022/05/16 02:33:48;;;;;;;7.70;5.05;;;;;;;17.43;72.45;100018.91;5108340;28;20485;-83
2022/05/16 02:36:14;;;;;;;7.07;4.90;;;;;;;17.25;72.11;99991.13;5107876;28;20806;-84
2022/05/16 02:38:41;;;;;;;5.45;4.05;;;;;;;17.37;72.43;100021.78;5108209;28;20032;-83
2022/05/16 02:41:06;;;;;;;6.68;4.55;;;;;;;17.44;72.13;100023.31;5100113;28;20066;-84
2022/05/16 02:43:32;;;;;;;6.20;4.70;;;;;;;17.34;72.43;100024.56;5108308;28;20481;-84
2022/05/16 02:45:57;;;;;;;6.53;4.38;;;;;;;17.22;72.65;100006.38;5107963;28;20094;-83
2022/05/16 02:48:23;;;;;;;7.50;4.60;;;;;;;17.14;72.83;100009.34;5097920;28;20114;-83
2022/05/16 02:50:48;;;;;;;4.93;3.75;;;;;;;17.08;73.06;100007.75;5108364;28;20032;-85
2022/05/16 02:53:14;;;;;;;5.10;4.07;;;;;;;17.33;72.60;100033.50;5107361;28;20043;-85
2022/05/16 02:55:40;;;;;;;6.82;3.92;;;;;;;17.08;73.09;99991.75;5107094;28;20504;-86
2022/05/16 02:58:08;;;;;;;6.93;4.25;;;;;;;16.96;73.94;99974.44;5108236;28;20083;-88
2022/05/16 03:00:34;;;;;;;7.68;5.00;;;;;;;17.05;74.68;100020.34;5107339;28;20031;-89
2022/05/16 03:02:59;;;;;;;4.97;2.78;;;;;;;17.01;74.01;99990.28;5106355;28;20084;-88
2022/05/16 03:05:25;;;;;;;6.80;4.30;;;;;;;16.91;75.12;100023.50;5106820;28;20050;-83
2022/05/16 03:07:51;;;;;;;5.63;3.75;;;;;;;16.79;75.08;99999.00;5107965;28;20110;-82
2022/05/16 03:10:16;;;;;;;5.05;3.42;;;;;;;16.82;74.21;99998.91;5106219;28;20465;-85
2022/05/16 03:12:46;;;;;;;6.30;4.15;;;;;;;16.88;75.25;100034.25;5107777;28;20458;-85
2022/05/16 03:15:14;;;;;;;5.38;4.32;;;;;;;16.53;75.78;99989.28;5107571;28;20049;-83
2022/05/16 03:17:40;;;;;;;11.80;4.93;;;;;;;16.46;75.88;99987.75;5107200;28;20092;-84
2022/05/16 03:20:09;;;;;;;5.30;3.63;;;;;;;16.74;75.82;100016.94;5107098;28;20111;-84
2022/05/16 03:22:34;;;;;;;5.00;3.33;;;;;;;16.92;75.33;100054.56;5107897;28;20111;-87
2022/05/16 03:25:00;;;;;;;6.18;4.47;;;;;;;16.87;74.62;100012.09;5107487;28;20118;-86
2022/05/16 03:27:25;;;;;;;4.97;3.40;;;;;;;16.61;74.55;99970.38;5107328;28;20032;-82
2022/05/16 03:29:51;;;;;;;6.47;3.50;;;;;;;16.97;74.66;100041.94;5107900;28;20185;-86
2022/05/16 03:32:17;;;;;;;6.00;4.38;;;;;;;16.50;74.01;99973.41;5106429;28;20032;-83
2022/05/16 03:34:43;;;;;;;5.10;3.70;;;;;;;17.14;73.26;100044.84;5107215;28;20030;-89
2022/05/16 03:37:08;;;;;;;5.85;3.05;;;;;;;17.03;72.96;100039.03;5107274;28;20039;-84
2022/05/16 03:42:18;;;;;;;4.97;3.22;;;;;;;17.09;73.91;100057.47;5087296;28;20421;-85
2022/05/16 03:44:43;;;;;;;9.13;4.82;;;;;;;17.13;73.56;100037.78;5096463;28;20047;-82
2022/05/16 03:47:09;;;;;;;6.65;4.57;;;;;;;17.04;73.31;100014.13;5107029;28;20035;-82
2022/05/16 03:49:34;;;;;;;4.68;3.33;;;;;;;17.52;72.89;100071.88;5106666;28;20577;-82
2022/05/16 03:52:00;;;;;;;5.60;3.53;;;;;;;17.34;72.84;100038.78;5107264;28;20449;-81
2022/05/16 03:54:26;;;;;;;6.00;3.65;;;;;;;17.36;72.84;100046.72;5107641;28;20081;-82
2022/05/16 03:56:52;;;;;;;5.25;3.78;;;;;;;17.47;72.63;100048.97;5106824;28;20130;-82
2022/05/16 03:59:17;;;;;;;10.43;5.70;;;;;;;17.51;73.15;100085.28;5106631;28;20095;-82
2022/05/16 04:01:44;;;;;;;5.43;3.72;;;;;;;17.58;73.52;100084.13;5106724;28;20063;-82
2022/05/16 04:04:10;;;;;;;5.10;4.03;;;;;;;17.72;72.80;100073.78;5106452;28;20036;-82
2022/05/16 04:06:37;;;;;;;6.13;3.55;;;;;;;17.72;72.26;100052.44;5106497;28;20092;-82
2022/05/16 04:09:03;;;;;;;6.50;4.95;;;;;;;18.05;71.63;100068.09;5105542;28;20027;-82
2022/05/16 04:11:29;;;;;;;6.00;4.50;;;;;;;18.21;71.01;100089.72;5107189;28;20027;-83
2022/05/16 04:13:55;;;;;;;5.07;4.38;;;;;;;18.35;70.24;100085.59;5107061;28;20040;-84
2022/05/16 04:16:21;;;;;;;7.15;4.88;;;;;;;18.37;69.75;100062.38;5106251;28;20038;-84
2022/05/16 04:18:47;;;;;;;6.00;4.35;;;;;;;18.53;70.05;100079.50;5099747;28;20028;-85
2022/05/16 04:21:13;;;;;;;8.07;4.18;;;;;;;18.67;70.16;100083.41;5097933;28;20478;-84
2022/05/16 04:23:40;;;;;;;8.25;5.22;;;;;;;18.80;68.79;100068.59;5109721;28;20866;-84
2022/05/16 04:26:05;;;;;;;5.55;3.70;;;;;;;18.67;68.61;100078.91;5107968;28;20063;-84
2022/05/16 04:28:31;;;;;;;6.95;3.90;;;;;;;18.59;69.18;100057.00;5089443;28;20083;-84
2022/05/16 04:30:56;;;;;;;6.97;4.25;;;;;;;18.71;69.43;100061.81;5097915;28;20048;-83
2022/05/16 04:33:22;;;;;;;7.60;4.00;;;;;;;18.82;69.15;100064.03;5109979;28;20028;-84
2022/05/16 04:35:47;;;;;;;5.45;3.20;;;;;;;19.08;68.60;100051.38;5102548;28;20692;-83
2022/05/16 04:38:13;;;;;;;6.15;4.18;;;;;;;19.40;67.77;100095.41;5108564;28;20074;-84
2022/05/16 04:42:40;;;;;;;7.57;5.15;;;;;;;19.31;66.27;100067.25;5108957;28;20432;-84
2022/05/16 04:43:24;;;;;;;5.57;4.00;;;;;;;19.64;66.35;100098.72;5109694;28;20027;-85
2022/05/16 04:45:50;;;;;;;5.95;4.07;;;;;;;19.94;65.61;100092.03;5109297;28;20061;-85
2022/05/16 04:48:15;;;;;;;7.25;4.28;;;;;;;19.72;65.06;100068.09;5110628;28;20054;-86
2022/05/16 04:50:40;;;;;;;5.30;3.15;;;;;;;19.54;64.32;100086.75;5109063;27;20127;-87
2022/05/16 04:53:06;;;;;;;4.68;3.08;;;;;;;19.43;65.85;100081.88;5110818;28;20036;-85
2022/05/16 04:55:32;;;;;;;6.25;4.53;;;;;;;19.82;64.64;100066.75;5108296;28;20035;-84
2022/05/16 04:57:57;;;;;;;5.78;4.07;;;;;;;20.05;64.64;100087.06;5107390;28;20063;-84
2022/05/16 05:00:25;;;;;;;4.88;4.22;;;;;;;20.28;61.82;100111.84;5101663;28;20035;-85
2022/05/16 05:02:50;;;;;;;6.80;3.38;;;;;;;20.36;61.14;100074.88;5108688;28;20035;-85
2022/05/16 05:05:16;;;;;;;13.80;5.65;;;;;;;20.46;60.55;100061.88;5109777;27;20081;-85
2022/05/16 05:07:43;;;;;;;5.05;3.80;;;;;;;20.83;59.88;100101.09;5109936;28;20035;-85
2022/05/16 05:15:39;;;;;;;4.80;3.50;;;;;;;21.10;59.87;100076.47;5109671;28;20096;-86
2022/05/16 05:18:06;;;;;;;4.40;3.28;;;;;;;21.01;58.70;100107.34;5107436;28;20039;-86
2022/05/16 05:20:35;;;;;;;5.68;3.80;;;;;;;20.83;59.88;100101.09;5105273;28;20089;-83
2022/05/16 05:23:03;;;;;;;5.07;2.85;;;;;;;21.01;59.60;100050.16;5089876;28;20036;-83
2022/05/16 05:25:29;;;;;;;5.70;3.95;;;;;;;21.76;56.81;100088.19;5094786;28;20428;-83
2022/05/16 05:27:54;;;;;;;6.25;3.88;;;;;;;22.38;55.62;100095.50;5109659;28;20032;-83
2022/05/16 05:30:25;;;;;;;7.95;4.75;;;;;;;22.49;55.34;100103.78;5109699;28;20031;-82
2022/05/16 05:32:52;;;;;;;5.45;2.97;;;;;;;22.11;54.96;100088.03;5109021;28;20037;-83
2022/05/16 05:35:19;;;;;;;5.47;3.83;;;;;;;21.90;55.77;100104.38;5109238;28;20035;-83
2022/05/16 05:37:44;;;;;;;4.55;2.90;;;;;;;21.91;56.44;100092.69;5109564;28;20031;-84
2022/05/16 05:40:12;;;;;;;11.30;3.75;;;;;;;22.49;55.64;100099.31;5109891;28;20038;-82
2022/05/16 05:42:37;;;;;;;6.25;4.43;;;;;;;23.06;53.13;100090.56;5109361;28;20039;-83
2022/05/16 05:45:04;;;;;;;5.28;3.55;;;;;;;23.29;51.71;100112.50;5109490;28;20070;-83
2022/05/16 05:47:30;;;;;;;5.60;3.15;;;;;;;23.01;51.58;100081.88;5107670;28;20401;-83
2022/05/16 05:49:55;;;;;;;4.53;3.33;;;;;;;22.98;51.80;100089.28;5108418;28;20034;-83
2022/05/16 05:52:22;;;;;;;4.25;2.95;;;;;;;23.33;50.73;100084.47;5109385;28;20036;-83
2022/05/16 05:54:48;;;;;;;4.43;2.63;;;;;;;23.88;49.96;100117.84;5109074;28;20027;-84
2022/05/16 05:57:16;;;;;;;6.03;3.70;;;;;;;24.17;49.27;100122.31;5109576;28;20073;-84
2022/05/16 05:59:42;;;;;;;4.82;2.90;;;;;;;24.17;49.82;100112.41;5109341;28;20118;-83
2022/05/16 06:02:09;;;;;;;4.68;3.67;;;;;;;24.08;49.03;100061.81;5108921;28;20031;-84
2022/05/16 06:04:35;;;;;;;3.47;2.25;;;;;;;24.26;48.59;100095.63;5109171;28;20028;-83
2022/05/16 06:07:01;;;;;;;5.25;3.50;;;;;;;24.23;49.91;100078.81;5109431;28;20037;-84
2022/05/16 06:09:27;;;;;;;3.85;2.53;;;;;;;24.37;48.55;100092.22;5109395;28;20024;-84
2022/05/16 06:11:53;;;;;;;5.00;3.08;;;;;;;24.09;48.56;100075.16;5108802;28;20126;-84
2022/05/16 06:14:18;;;;;;;6.38;2.97;;;;;;;24.26;50.01;100084.00;5109171;28;20457;-84
2022/05/16 06:16:44;;;;;;;3.47;2.28;;;;;;;24.80;48.10;100093.91;5108944;28;20417;-83
2022/05/16 06:19:09;;;;;;;6.40;3.30;;;;;;;25.30;47.40;100107.59;5108616;28;20032;-83
2022/05/16 06:21:39;;;;;;;4.60;3.30;;;;;;;25.27;46.41;100072.69;5109625;28;20050;-83
2022/05/16 06:25:31;;;;;;;3.90;2.38;;;;;;;25.48;47.42;100097.34;5109107;28;20077;-84
2022/05/16 06:26:51;;;;;;;4.97;3.03;;;;;;;25.82;45.97;100116.53;5108156;28;20048;-84
2022/05/16 06:29:16;;;;;;;5.13;3.30;;;;;;;25.88;45.59;100062.06;5108568;28;20028;-84
2022/05/16 06:31:42;;;;;;;15.90;3.50;;;;;;;25.76;44.69;100108.88;5108668;28;20024;-83
2022/05/16 06:34:08;;;;;;;4.53;3.45;;;;;;;26.03;44.31;100088.00;5108466;28;20043;-83
2022/05/16 06:36:33;;;;;;;3.42;2.67;;;;;;;26.22;44.90;100087.47;5108421;28;20035;-83
2022/05/16 06:38:59;;;;;;;6.70;4.13;;;;;;;26.58;43.14;100093.81;5109060;28;20449;-83
2022/05/16 06:41:24;;;;;;;7.82;3.80;;;;;;;26.22;44.00;100092.88;5108416;28;20114;-83
2022/05/16 06:43:50;;;;;;;4.88;2.88;;;;;;;26.43;42.80;100101.25;5108370;28;20031;-84
2022/05/16 06:46:15;;;;;;;4.85;3.00;;;;;;;26.20;41.78;100085.88;5107919;28;20513;-84
2022/05/16 06:48:41;;;;;;;2.92;2.42;;;;;;;26.57;41.68;100081.28;5108563;27;20035;-84
2022/05/16 06:51:06;;;;;;;4.00;2.97;;;;;;;26.56;43.76;100084.94;5107472;28;20031;-83
2022/05/16 06:53:32;;;;;;;4.93;3.85;;;;;;;26.84;42.12;100099.09;5108649;28;20031;-83
2022/05/16 06:55:57;;;;;;;5.25;2.92;;;;;;;26.99;42.06;100078.13;5107979;28;20103;-83
2022/05/16 06:58:24;;;;;;;4.30;3.33;;;;;;;27.29;42.55;100101.91;5108088;28;20481;-84
2022/05/16 07:00:50;;;;;;;5.72;3.03;;;;;;;27.34;42.57;100098.88;5107110;28;20046;-84
2022/05/16 07:03:16;;;;;;;8.23;4.10;;;;;;;27.68;42.44;100088.94;5108189;28;20041;-83
2022/05/16 07:05:42;;;;;;;6.43;4.70;;;;;;;27.79;41.63;100069.13;5107361;28;20035;-83
2022/05/16 07:08:08;;;;;;;3.95;3.28;;;;;;;28.08;40.34;100057.75;5107972;28;20676;-84
2022/05/16 07:10:33;;;;;;;5.72;4.68;;;;;;;28.20;39.46;100091.97;5105619;28;20027;-84
2022/05/16 07:12:59;;;;;;;6.47;3.78;;;;;;;28.08;41.45;100057.75;5107819;28;20089;-84
2022/05/16 07:15:25;;;;;;;10.48;3.95;;;;;;;28.47;40.45;100097.94;5108160;28;20032;-84
2022/05/16 07:17:51;;;;;;;6.18;2.97;;;;;;;28.63;40.39;100059.56;5108163;27;20175;-85
2022/05/16 07:20:18;;;;;;;11.82;3.38;;;;;;;28.34;40.39;100090.81;5108257;27;20144;-83
2022/05/16 07:22:45;;;;;;;4.07;2.55;;;;;;;28.40;39.90;100076.75;5106637;28;20453;-85
2022/05/16 07:25:12;;;;;;;5.60;3.25;;;;;;;28.22;40.36;100090.03;5107667;27;20034;-83
2022/05/16 07:27:56;;;;;;;6.18;3.83;;;;;;;28.06;43.56;100069.72;5107424;28;20032;-84
2022/05/16 07:30:40;;;;;;;5.00;3.08;;;;;;;28.15;40.42;100082.50;5107758;28;20099;-84
2022/05/16 07:33:05;;;;;;;5.03;2.85;;;;;;;27.85;43.18;100052.34;5106623;28;20091;-85
2022/05/16 07:35:33;;;;;;;7.72;3.63;;;;;;;27.89;42.16;100090.91;5107399;28;21286;-83
2022/05/16 07:38:00;;;;;;;7.85;4.03;;;;;;;28.51;42.15;100094.00;5106678;28;20497;-84
2022/05/16 07:40:29;;;;;;;4.85;2.97;;;;;;;27.86;41.00;100066.75;5107596;28;20034;-85
2022/05/16 07:42:55;;;;;;;4.65;3.05;;;;;;;28.28;40.36;100072.34;5107301;28;20038;-85
2022/05/16 07:45:22;;;;;;;5.65;3.60;;;;;;;28.86;39.32;100082.88;5107113;28;20048;-84
2022/05/16 07:47:48;;;;;;;4.85;3.40;;;;;;;28.89;39.38;100070.91;5107390;28;20032;-84
2022/05/16 07:50:15;;;;;;;5.15;3.72;;;;;;;28.63;40.91;100057.72;5107351;28;20031;-83
2022/05/16 07:52:47;;;;;;;3.35;2.38;;;;;;;28.46;41.37;100066.41;5106859;28;20114;-85
2022/05/16 07:55:15;;;;;;;4.43;3.33;;;;;;;28.07;41.69;100072.31;5105856;28;20027;-86
2022/05/16 07:57:41;;;;;;;4.30;2.75;;;;;;;28.10;45.07;100063.91;5106869;28;20036;-84
2022/05/16 08:00:07;;;;;;;6.20;3.83;;;;;;;28.85;40.31;100058.59;5107367;28;20046;-85
2022/05/16 08:02:33;;;;;;;5.85;3.15;;;;;;;28.96;41.57;100060.38;5105300;28;20031;-86
2022/05/16 08:04:58;;;;;;;4.70;3.53;;;;;;;27.97;40.88;100041.50;5106451;28;20100;-84
2022/05/16 08:07:24;;;;;;;5.38;2.95;;;;;;;28.90;41.68;100049.06;5107010;28;20477;-84
2022/05/16 08:12:37;;;;;;;5.07;3.20;;;;;;;29.10;42.05;100063.63;5086834;28;20058;-84
2022/05/16 08:15:03;;;;;;;3.78;3.08;;;;;;;28.99;41.95;100065.53;5086947;28;20318;-84
2022/05/16 08:17:29;;;;;;;6.32;3.72;;;;;;;29.34;40.87;100043.47;5086409;28;20070;-84
2022/05/16 08:19:58;;;;;;;6.07;4.22;;;;;;;29.84;40.55;100022.81;5098089;28;20051;-86
2022/05/16 08:22:32;;;;;;;5.68;4.03;;;;;;;29.61;37.36;100063.75;5107191;28;20440;-85
2022/05/16 08:24:59;;;;;;;5.70;4.40;;;;;;;29.91;38.92;100054.72;5105179;28;20130;-84
2022/05/16 08:27:25;;;;;;;5.57;4.43;;;;;;;30.31;37.19;100034.75;5106873;28;20610;-85
2022/05/16 08:29:51;;;;;;;5.78;3.67;;;;;;;30.60;36.03;100060.28;5106922;28;20034;-85
2022/05/16 08:32:23;;;;;;;6.05;3.50;;;;;;;30.03;36.29;100019.25;5105804;28;20553;-85
2022/05/16 08:34:57;;;;;;;4.00;2.80;;;;;;;30.86;37.08;100039.63;5105384;28;20038;-85
2022/05/16 08:40:07;;;;;;;8.32;6.07;;;;;;;30.51;35.62;100029.34;5107005;28;20066;-85
2022/05/16 08:42:54;;;;;;;4.40;3.08;;;;;;;30.77;34.92;100037.78;5105804;28;20023;-86
2022/05/16 08:45:41;;;;;;;5.43;3.60;;;;;;;30.11;34.80;100012.13;5106499;28;20075;-85
2022/05/16 08:48:06;;;;;;;4.50;2.90;;;;;;;29.64;35.74;100041.72;5106563;28;20693;-86
2022/05/16 08:50:41;;;;;;;4.78;2.97;;;;;;;30.31;35.40;100042.91;5104518;28;20036;-85
2022/05/16 08:53:18;;;;;;;3.60;2.60;;;;;;;29.65;37.01;100021.72;5106770;28;20031;-84
2022/05/16 08:55:49;;;;;;;4.80;2.55;;;;;;;29.58;35.91;99998.78;5106765;28;20032;-85
2022/05/16 08:58:19;;;;;;;4.28;3.30;;;;;;;29.31;37.83;100034.75;5105247;28;20028;-84
2022/05/16 09:00:56;;;;;;;4.65;3.00;;;;;;;29.21;38.70;100007.53;5106866;28;20039;-85
2022/05/16 09:03:27;;;;;;;4.65;2.85;;;;;;;29.69;36.93;100028.59;5106447;28;20070;-85
2022/05/16 09:06:02;;;;;;;4.57;2.75;;;;;;;29.42;35.70;100021.91;5106904;28;20032;-84
2022/05/16 09:08:49;;;;;;;5.28;3.15;;;;;;;29.65;34.75;100008.13;5105215;28;20032;-85
2022/05/16 09:11:35;;;;;;;3.35;2.53;;;;;;;29.99;34.24;100026.84;5110333;28;20066;-85
2022/05/16 09:14:05;;;;;;;4.70;3.55;;;;;;;30.26;36.70;100018.00;5109571;28;20051;-85
2022/05/16 09:16:54;;;;;;;4.50;2.95;;;;;;;30.03;36.42;100022.84;5108893;28;20386;-87
2022/05/16 09:19:41;;;;;;;3.75;2.72;;;;;;;29.90;34.79;100023.09;5107954;28;20046;-86
2022/05/16 09:22:16;;;;;;;3.65;2.85;;;;;;;29.59;33.31;100001.38;5109920;28;20038;-85
2022/05/16 09:24:49;;;;;;;2.10;1.45;;;;;;;29.80;32.63;99978.75;5110262;28;20028;-86
2022/05/16 09:30:07;;;;;;;2.58;1.90;;;;;;;30.05;33.02;100004.53;5109481;28;20121;-86
2022/05/16 09:32:50;;;;;;;3.80;2.45;;;;;;;30.45;33.23;99972.78;5109641;28;20023;-87
2022/05/16 09:35:37;;;;;;;2.67;2.00;;;;;;;29.72;35.12;100003.88;5109704;28;20511;-87
2022/05/16 09:38:04;;;;;;;3.20;2.35;;;;;;;29.52;36.33;99961.31;5109632;28;20101;-87
2022/05/16 09:40:38;;;;;;;3.25;1.90;;;;;;;30.11;34.35;99975.91;5109736;28;20506;-86
2022/05/16 09:43:14;;;;;;;5.97;3.33;;;;;;;30.14;34.55;99970.19;5109374;28;20582;-85
2022/05/16 09:45:45;;;;;;;6.10;2.88;;;;;;;29.87;33.45;99949.13;5109246;28;20051;-85
2022/05/16 09:48:19;;;;;;;2.97;2.13;;;;;;;30.44;33.26;99973.78;5109309;28;20420;-86
2022/05/16 09:51:00;;;;;;;3.60;2.67;;;;;;;30.54;34.58;99944.69;5108573;28;20031;-85
2022/05/16 09:53:42;;;;;;;3.92;2.60;;;;;;;31.00;32.25;99980.28;5109514;28;20038;-85
2022/05/16 09:56:33;;;;;;;4.30;2.72;;;;;;;30.25;33.22;99967.31;5108883;28;20023;-85
2022/05/16 09:59:04;;;;;;;4.28;2.38;;;;;;;29.99;33.59;99943.41;5109585;28;20417;-85
2022/05/16 10:01:40;;;;;;;4.15;2.40;;;;;;;30.62;32.85;99941.25;5107569;28;20114;-85
2022/05/16 10:04:17;;;;;;;5.75;3.25;;;;;;;30.77;31.55;99960.69;5108881;28;20027;-86
2022/05/16 10:06:57;;;;;;;4.80;2.28;;;;;;;30.57;32.12;99927.19;5108821;28;20035;-85
2022/05/16 10:09:33;;;;;;;3.58;2.33;;;;;;;30.35;31.39;99929.22;5109185;28;20040;-86
2022/05/16 10:11:59;;;;;;;3.15;1.92;;;;;;;29.77;33.31;99922.75;5108418;28;20028;-84
2022/05/16 10:14:25;;;;;;;3.38;2.40;;;;;;;29.82;32.51;99938.66;5108649;28;20052;-86
2022/05/16 10:16:53;;;;;;;5.30;2.80;;;;;;;30.26;31.70;99889.28;5108200;28;20040;-86
2022/05/16 10:19:22;;;;;;;5.03;2.45;;;;;;;30.39;31.06;99897.16;5106396;28;20063;-86
2022/05/16 10:21:53;;;;;;;2.25;1.77;;;;;;;31.15;32.35;99943.38;5108697;28;20027;-85
2022/05/16 10:24:21;;;;;;;2.70;2.10;;;;;;;31.22;32.21;99913.69;5108110;28;20497;-85
2022/05/16 10:26:51;;;;;;;3.67;2.30;;;;;;;29.80;35.09;99899.91;5108182;28;20047;-88
2022/05/16 10:29:22;;;;;;;4.45;2.38;;;;;;;29.78;34.71;99885.53;5107583;28;20176;-85
2022/05/16 10:34:49;;;;;;;2.90;1.73;;;;;;;29.86;31.16;99868.56;5108186;28;20107;-84
2022/05/16 10:37:16;;;;;;;4.55;3.55;;;;;;;30.38;32.92;99871.78;5108067;28;20020;-87
2022/05/16 10:39:46;;;;;;;3.53;2.30;;;;;;;30.99;34.96;99875.09;5108235;28;20027;-85
2022/05/16 10:42:21;;;;;;;4.18;3.00;;;;;;;31.10;30.20;99883.06;5107576;28;20450;-86
2022/05/16 10:45:18;;;;;;;3.20;2.35;;;;;;;30.66;29.80;99888.22;5106628;28;20047;-87
2022/05/16 10:48:06;;;;;;;4.70;3.03;;;;;;;30.16;30.33;99852.06;5106063;28;20851;-85
2022/05/16 10:50:39;;;;;;;3.40;2.22;;;;;;;30.81;31.22;99892.16;5108501;28;20026;-85
2022/05/16 10:53:10;;;;;;;4.40;2.13;;;;;;;30.87;30.04;99866.22;5108324;28;20830;-86
2022/05/16 10:56:01;;;;;;;2.55;1.85;;;;;;;30.34;31.32;99867.66;5108279;28;20027;-87
2022/05/16 10:58:29;;;;;;;2.40;2.03;;;;;;;30.60;29.95;99865.19;5108604;28;20036;-86
2022/05/16 11:00:57;;;;;;;3.20;2.28;;;;;;;30.46;30.50;99858.34;5107842;28;20118;-87
2022/05/16 11:03:35;;;;;;;3.63;2.08;;;;;;;30.04;30.28;99853.22;5106676;28;20067;-85
2022/05/16 11:06:19;;;;;;;3.00;2.15;;;;;;;30.58;29.40;99858.16;5107748;27;20042;-84
2022/05/16 11:08:46;;;;;;;1.88;1.17;;;;;;;30.80;30.64;99833.31;5106532;28;20039;-84
2022/05/16 11:11:40;;;;;;;3.45;2.28;;;;;;;30.66;29.37;99823.75;5108168;28;20051;-84
2022/05/16 11:14:36;;;;;;;2.95;2.10;;;;;;;30.55;30.18;99842.97;5107776;28;20027;-85
2022/05/16 11:17:30;;;;;;;2.35;1.70;;;;;;;30.65;28.87;99830.19;5106719;28;20091;-84
2022/05/16 11:20:18;;;;;;;;;;;;;;;30.74;29.22;99836.63;5108495;27;20034;-85
2022/05/16 11:22:52;;;;;;;2.95;2.10;;;;;;;30.39;29.63;99791.91;5107557;28;19916;-85
2022/05/16 11:25:46;;;;;;;6.47;3.33;;;;;;;30.69;29.08;99831.63;5107394;28;20039;-84
2022/05/16 11:28:18;;;;;;;2.20;1.27;;;;;;;30.94;29.21;99833.78;5108231;28;20054;-85
2022/05/16 11:30:52;;;;;;;3.25;1.75;;;;;;;30.69;29.93;99801.69;5107539;28;20038;-85
2022/05/16 11:33:23;;;;;;;1.75;1.52;;;;;;;30.90;29.00;99822.34;5106894;28;20581;-85
2022/05/16 11:35:53;;;;;;;2.35;1.55;;;;;;;30.91;27.62;99783.22;5107385;28;20027;-84
2022/05/16 11:38:43;;;;;;;2.08;1.52;;;;;;;30.56;25.43;99822.09;5107829;28;20047;-85
2022/05/16 11:41:45;;;;;;;2.03;1.45;;;;;;;30.66;27.11;99814.72;5106940;28;20020;-85
2022/05/16 11:44:27;;;;;;;2.05;1.42;;;;;;;30.66;25.81;99810.16;5106975;28;20516;-84
2022/05/16 11:47:08;;;;;;;1.23;1.05;;;;;;;30.74;24.73;99779.47;5107148;28;20035;-85
2022/05/16 11:49:54;;;;;;;1.70;1.13;;;;;;;30.95;25.31;99805.56;5107085;28;20439;-85
2022/05/16 11:52:35;;;;;;;2.05;1.50;;;;;;;30.82;24.44;99795.03;5086839;28;20042;-84
2022/05/16 12:01:07;;;;;;;2.40;1.38;;;;;;;31.20;23.44;99782.19;5086959;28;20043;-86
2022/05/16 12:03:38;;;;;;;2.08;1.40;;;;;;;31.02;23.44;99744.91;5103267;28;20044;-86
2022/05/16 12:06:32;;;;;;;1.48;0.90;;;;;;;31.17;23.48;99764.31;5102994;28;20093;-84
2022/05/16 12:09:16;;;;;;;1.85;1.10;;;;;;;31.64;23.49;99767.81;5106961;28;20512;-85
2022/05/16 12:12:01;;;;;;;1.75;1.27;;;;;;;31.91;23.69;99758.66;5104561;28;20035;-85
2022/05/16 12:14:38;;;;;;;2.15;1.15;;;;;;;31.44;24.00;99742.59;5106743;28;20584;-86